createdAt,value
2022-11-28T00:01:25.201Z,43.00
2022-11-28T00:03:51.850Z,41.90
2022-11-28T00:06:18.972Z,42.10
2022-11-28T00:08:46.347Z,45.60
2022-11-28T00:11:15.786Z,45.60
2022-11-28T00:13:43.387Z,43.80
2022-11-28T00:16:16.004Z,40.00
2022-11-28T00:18:42.539Z,39.00
2022-11-28T00:21:13.759Z,40.30
2022-11-28T00:23:41.924Z,41.30
2022-11-28T00:26:15.422Z,40.80
2022-11-28T00:28:42.520Z,40.60
2022-11-28T00:31:26.898Z,41.50
2022-11-28T00:33:54.500Z,42.30
2022-11-28T00:36:21.997Z,39.20
2022-11-28T00:38:49.397Z,42.00
2022-11-28T00:41:20.956Z,43.50
2022-11-28T00:43:48.963Z,43.10
2022-11-28T00:46:17.316Z,43.80
2022-11-28T00:48:44.546Z,39.50
2022-11-28T00:51:16.492Z,39.40
2022-11-28T00:53:45.075Z,39.20
2022-11-28T00:56:15.354Z,39.70
2022-11-28T00:58:43.104Z,39.60
2022-11-28T01:01:27.712Z,38.80
2022-11-28T01:03:57.410Z,38.50
2022-11-28T01:06:33.639Z,35.70
2022-11-28T01:09:05.564Z,37.80
2022-11-28T01:11:32.300Z,34.50
2022-11-28T01:14:01.124Z,38.00
2022-11-28T01:16:29.489Z,38.30
2022-11-28T01:18:56.328Z,35.00
2022-11-28T01:21:23.648Z,31.10
2022-11-28T01:23:50.422Z,27.40
2022-11-28T01:26:21.690Z,27.80
2022-11-28T01:28:48.774Z,25.50
2022-11-28T01:31:19.556Z,26.50
2022-11-28T01:33:46.765Z,25.20
2022-11-28T01:36:15.241Z,23.60
2022-11-28T01:38:42.592Z,30.70
2022-11-28T01:41:10.163Z,26.40
2022-11-28T01:43:38.158Z,29.70
2022-11-28T01:46:06.669Z,27.90
2022-11-28T01:48:39.772Z,30.30
2022-11-28T01:51:09.786Z,30.10
2022-11-28T01:53:42.815Z,31.90
2022-11-28T01:56:17.329Z,32.10
2022-11-28T01:58:50.334Z,30.20
2022-11-28T02:01:18.626Z,29.70
2022-11-28T02:03:49.160Z,31.00
2022-11-28T02:06:20.590Z,28.90
2022-11-28T02:08:55.449Z,31.70
2022-11-28T02:12:11.572Z,32.40
2022-11-28T02:15:20.972Z,30.60
2022-11-28T02:18:22.656Z,26.50
2022-11-28T02:21:06.591Z,28.60
2022-11-28T02:24:32.996Z,28.80
2022-11-28T02:27:25.631Z,28.20
2022-11-28T02:30:54.683Z,27.50
2022-11-28T02:33:38.676Z,25.10
2022-11-28T02:36:31.717Z,27.90
2022-11-28T02:39:06.971Z,28.30
2022-11-28T02:42:01.583Z,29.20
2022-11-28T02:44:42.813Z,31.60
2022-11-28T02:47:23.467Z,32.00
2022-11-28T02:50:21.241Z,30.70
2022-11-28T02:53:03.532Z,28.70
2022-11-28T02:55:30.799Z,29.80
2022-11-28T02:57:57.201Z,29.40
2022-11-28T03:00:36.914Z,29.50
2022-11-28T03:03:28.695Z,27.90
2022-11-28T03:06:09.727Z,26.90
2022-11-28T03:09:10.541Z,25.80
2022-11-28T03:12:19.915Z,25.10
2022-11-28T03:15:01.791Z,22.90
2022-11-28T03:18:00.554Z,22.30
2022-11-28T03:20:44.927Z,17.90
2022-11-28T03:23:17.863Z,18.60
2022-11-28T03:25:57.845Z,20.30
2022-11-28T03:28:39.275Z,22.00
2022-11-28T03:31:20.208Z,24.20
2022-11-28T03:33:58.190Z,23.40
2022-11-28T03:36:40.498Z,23.70
2022-11-28T03:39:14.573Z,23.30
2022-11-28T03:41:51.971Z,22.50
2022-11-28T03:44:27.948Z,23.70
2022-11-28T03:46:57.735Z,26.80
2022-11-28T03:49:35.993Z,23.70
2022-11-28T03:52:11.419Z,22.40
2022-11-28T03:54:49.596Z,19.40
2022-11-28T03:57:35.134Z,20.10
2022-11-28T04:00:12.864Z,19.20
2022-11-28T04:03:07.822Z,21.10
2022-11-28T04:05:47.128Z,21.10
2022-11-28T04:08:28.355Z,20.40
2022-11-28T04:11:14.640Z,20.30
2022-11-28T04:14:03.413Z,25.00
2022-11-28T04:16:54.434Z,29.80
2022-11-28T04:19:39.900Z,22.10
2022-11-28T04:22:24.232Z,19.90
2022-11-28T04:25:00.324Z,17.10
2022-11-28T04:27:38.769Z,19.20
2022-11-28T04:30:08.050Z,19.70
2022-11-28T04:32:42.204Z,17.40
2022-11-28T04:35:22.834Z,18.80
2022-11-28T04:37:51.936Z,18.10
2022-11-28T04:40:20.113Z,20.20
2022-11-28T04:42:57.748Z,20.10
2022-11-28T04:45:34.817Z,19.10
2022-11-28T04:48:02.497Z,17.70
2022-11-28T04:51:02.196Z,17.10
2022-11-28T04:53:49.867Z,16.20
2022-11-28T04:56:32.073Z,18.20
2022-11-28T04:59:00.829Z,18.70
2022-11-28T05:01:31.344Z,19.50
2022-11-28T05:03:57.967Z,17.80
2022-11-28T05:06:28.399Z,17.80
2022-11-28T05:08:55.195Z,19.00
2022-11-28T05:11:21.853Z,20.80
2022-11-28T05:13:48.329Z,20.00
2022-11-28T05:16:16.562Z,17.90
2022-11-28T05:18:44.107Z,16.00
2022-11-28T05:21:11.331Z,13.40
2022-11-28T05:23:40.917Z,17.30
2022-11-28T05:26:13.510Z,15.30
2022-11-28T05:28:43.496Z,15.00
2022-11-28T05:31:10.045Z,14.70
2022-11-28T05:33:36.585Z,15.10
2022-11-28T05:36:12.890Z,14.50
2022-11-28T05:38:40.878Z,18.20
2022-11-28T05:41:07.341Z,16.20
2022-11-28T05:43:34.229Z,16.10
2022-11-28T05:46:00.850Z,16.70
2022-11-28T05:48:27.324Z,14.70
2022-11-28T05:50:53.943Z,16.80
2022-11-28T05:53:20.460Z,16.50
2022-11-28T05:55:47.638Z,15.30
2022-11-28T05:58:14.786Z,15.50
2022-11-28T06:00:41.229Z,14.20
2022-11-28T06:03:07.815Z,16.60
2022-11-28T06:05:42.817Z,17.80
2022-11-28T06:08:12.567Z,18.60
2022-11-28T06:10:39.436Z,18.50
2022-11-28T06:13:06.084Z,18.10
2022-11-28T06:15:37.565Z,16.50
2022-11-28T06:18:05.087Z,15.80
2022-11-28T06:20:31.625Z,15.80
2022-11-28T06:22:57.990Z,13.90
2022-11-28T06:25:24.511Z,14.70
2022-11-28T06:27:50.883Z,15.60
2022-11-28T06:30:17.543Z,16.80
2022-11-28T06:32:44.017Z,24.50
2022-11-28T06:35:10.475Z,24.70
2022-11-28T06:37:36.968Z,22.90
2022-11-28T06:40:04.596Z,19.30
2022-11-28T06:42:31.227Z,18.10
2022-11-28T06:44:57.620Z,18.70
2022-11-28T06:47:24.008Z,16.10
2022-11-28T06:49:50.464Z,15.60
2022-11-28T06:52:16.836Z,15.00
2022-11-28T06:54:44.479Z,14.70
2022-11-28T06:57:11.274Z,16.90
2022-11-28T06:59:37.641Z,17.10
2022-11-28T07:02:07.785Z,16.50
2022-11-28T07:04:34.748Z,16.60
2022-11-28T07:07:01.143Z,17.10
2022-11-28T07:09:27.774Z,16.00
2022-11-28T07:11:54.288Z,16.60
2022-11-28T07:14:20.929Z,14.80
2022-11-28T07:16:49.059Z,14.00
2022-11-28T07:19:16.402Z,15.10
2022-11-28T07:21:42.803Z,15.50
2022-11-28T07:24:09.334Z,15.80
2022-11-28T07:26:37.898Z,16.70
2022-11-28T07:29:06.849Z,18.70
2022-11-28T07:31:34.142Z,17.50
2022-11-28T07:34:03.399Z,19.60
2022-11-28T07:36:30.514Z,18.80
2022-11-28T07:39:02.472Z,18.20
2022-11-28T07:41:29.052Z,18.60
2022-11-28T07:43:59.024Z,18.50
2022-11-28T07:46:27.973Z,19.10
2022-11-28T07:48:55.000Z,18.30
2022-11-28T07:51:29.818Z,17.00
2022-11-28T07:53:56.732Z,16.10
2022-11-28T07:56:39.579Z,15.10
2022-11-28T07:59:11.228Z,15.20
2022-11-28T08:01:38.438Z,16.20
2022-11-28T08:04:08.771Z,16.40
2022-11-28T08:06:43.337Z,17.00
2022-11-28T08:09:12.270Z,18.50
2022-11-28T08:11:39.156Z,20.70
2022-11-28T08:14:05.846Z,22.40
2022-11-28T08:16:32.842Z,22.00
2022-11-28T08:19:03.241Z,22.30
2022-11-28T08:21:33.276Z,22.40
2022-11-28T08:24:02.471Z,20.90
2022-11-28T08:26:31.369Z,21.00
2022-11-28T08:28:59.492Z,15.50
2022-11-28T08:31:38.346Z,17.30
2022-11-28T08:34:09.319Z,17.20
2022-11-28T08:36:35.880Z,19.60
2022-11-28T08:41:51.459Z,29.20
2022-11-28T08:44:17.898Z,18.50
2022-11-28T08:46:44.317Z,15.60
2022-11-28T08:49:11.027Z,15.10
2022-11-28T08:51:37.513Z,16.20
2022-11-28T08:54:04.301Z,17.00
2022-11-28T08:56:30.767Z,16.40
2022-11-28T08:58:57.139Z,15.10
2022-11-28T09:01:26.635Z,17.70
2022-11-28T09:03:55.484Z,17.80
2022-11-28T09:06:23.954Z,19.70
2022-11-28T09:08:52.313Z,18.70
2022-11-28T09:11:21.484Z,16.80
2022-11-28T09:13:48.193Z,18.50
2022-11-28T09:16:15.680Z,17.50
2022-11-28T09:18:42.579Z,18.70
2022-11-28T09:21:13.015Z,19.80
2022-11-28T09:23:41.302Z,18.40
2022-11-28T09:26:20.703Z,19.30
2022-11-28T09:28:47.946Z,20.60
2022-11-28T09:31:17.288Z,19.80
2022-11-28T09:33:46.038Z,18.40
2022-11-28T09:36:17.232Z,17.20
2022-11-28T09:38:43.884Z,17.00
2022-11-28T09:41:28.504Z,17.30
2022-11-28T09:44:24.129Z,14.90
2022-11-28T09:46:56.890Z,14.10
2022-11-28T09:49:41.016Z,14.30
2022-11-28T09:52:41.478Z,13.40
2022-11-28T09:55:35.671Z,12.40
2022-11-28T09:58:15.388Z,14.00
2022-11-28T10:00:56.003Z,13.70
2022-11-28T10:03:42.305Z,13.20
2022-11-28T10:06:31.183Z,11.70
2022-11-28T10:09:14.963Z,12.90
2022-11-28T10:12:15.940Z,12.10
2022-11-28T10:15:18.333Z,12.70
2022-11-28T10:18:41.708Z,12.10
2022-11-28T10:21:31.273Z,12.00
2022-11-28T10:24:10.501Z,12.10
2022-11-28T10:26:41.226Z,13.20
2022-11-28T10:29:22.830Z,13.90
2022-11-28T10:31:58.819Z,13.30
2022-11-28T10:34:45.348Z,11.80
2022-11-28T10:37:30.993Z,9.80
2022-11-28T10:40:20.021Z,10.90
2022-11-28T10:43:21.006Z,11.60
2022-11-28T10:46:23.100Z,11.20
2022-11-28T10:49:38.388Z,11.40
2022-11-28T10:52:23.924Z,11.80
2022-11-28T10:55:21.329Z,11.70
2022-11-28T10:58:09.527Z,10.00
2022-11-28T11:00:38.179Z,10.00
2022-11-28T11:03:06.013Z,10.70
2022-11-28T11:05:35.835Z,10.70
2022-11-28T11:08:29.659Z,10.60
2022-11-28T11:11:29.339Z,10.00
2022-11-28T11:14:02.860Z,9.60
2022-11-28T11:16:52.091Z,9.10
2022-11-28T11:19:37.064Z,7.50
2022-11-28T11:22:19.034Z,10.20
2022-11-28T11:25:05.667Z,9.80
2022-11-28T11:27:34.936Z,9.70
2022-11-28T11:30:18.411Z,9.50
2022-11-28T11:32:51.420Z,11.00
2022-11-28T11:35:27.110Z,11.10
2022-11-28T11:38:20.065Z,9.40
2022-11-28T11:40:48.208Z,10.30
2022-11-28T11:43:30.119Z,9.10
2022-11-28T11:46:07.412Z,11.40
2022-11-28T11:48:42.210Z,10.70
2022-11-28T11:51:39.393Z,10.70
2022-11-28T11:54:19.155Z,12.00
2022-11-28T11:56:53.544Z,11.10
2022-11-28T12:00:04.629Z,10.80
2022-11-28T12:02:56.528Z,11.30
2022-11-28T12:06:06.187Z,11.40
2022-11-28T12:08:36.112Z,12.10
2022-11-28T12:11:17.764Z,12.90
2022-11-28T12:13:44.762Z,12.40
2022-11-28T12:16:33.322Z,13.30
2022-11-28T12:19:43.944Z,12.70
2022-11-28T12:22:27.089Z,11.10
2022-11-28T12:25:18.451Z,12.00
2022-11-28T12:28:14.505Z,10.40
2022-11-28T12:31:22.598Z,10.90
2022-11-28T12:34:01.102Z,14.90
2022-11-28T12:36:57.366Z,14.40
2022-11-28T12:39:48.445Z,14.00
2022-11-28T12:43:05.509Z,15.20
2022-11-28T12:45:46.927Z,14.90
2022-11-28T12:48:30.479Z,13.50
2022-11-28T12:51:40.591Z,12.80
2022-11-28T12:54:26.159Z,14.20
2022-11-28T12:57:11.137Z,14.10
2022-11-28T13:00:08.074Z,13.10
2022-11-28T13:03:16.111Z,15.70
2022-11-28T13:06:20.056Z,14.10
2022-11-28T13:09:32.736Z,13.00
2022-11-28T13:12:41.901Z,16.20
2022-11-28T13:15:53.623Z,15.50
2022-11-28T13:18:39.453Z,13.60
2022-11-28T13:21:38.948Z,13.00
2022-11-28T13:24:48.279Z,13.70
2022-11-28T13:27:27.545Z,11.10
2022-11-28T13:30:18.156Z,12.80
2022-11-28T13:32:57.639Z,14.30
2022-11-28T13:35:24.995Z,13.50
2022-11-28T13:38:41.708Z,14.10
2022-11-28T13:42:05.904Z,13.80
2022-11-28T13:44:19.794Z,12.50
2022-11-28T13:46:46.934Z,12.30
2022-11-28T13:49:26.657Z,13.20
2022-11-28T13:52:32.700Z,9.10
2022-11-28T13:54:59.152Z,10.30
2022-11-28T13:57:38.411Z,13.50
2022-11-28T14:00:25.312Z,11.70
2022-11-28T14:02:55.948Z,12.00
2022-11-28T14:05:41.484Z,13.20
2022-11-28T14:08:21.918Z,12.10
2022-11-28T14:11:34.107Z,12.70
2022-11-28T14:14:21.540Z,13.70
2022-11-28T14:17:00.456Z,12.80
2022-11-28T14:20:05.194Z,13.30
2022-11-28T14:23:01.360Z,12.30
2022-11-28T14:25:33.508Z,12.60
2022-11-28T14:28:04.940Z,12.80
2022-11-28T14:30:41.006Z,11.60
2022-11-28T14:33:40.072Z,13.40
2022-11-28T14:36:22.769Z,15.40
2022-11-28T14:39:05.306Z,14.60
2022-11-28T14:41:31.885Z,14.80
2022-11-28T14:44:45.991Z,13.70
2022-11-28T14:47:21.184Z,14.10
2022-11-28T14:49:49.232Z,15.80
2022-11-28T14:52:38.875Z,15.80
2022-11-28T14:55:21.358Z,15.80
2022-11-28T14:57:59.763Z,16.00
2022-11-28T15:00:49.843Z,15.70
2022-11-28T15:03:58.478Z,16.80
2022-11-28T15:06:36.547Z,17.00
2022-11-28T15:09:30.818Z,16.00
2022-11-28T15:12:49.012Z,15.20
2022-11-28T15:15:17.531Z,14.40
2022-11-28T15:17:51.298Z,17.50
2022-11-28T15:20:29.053Z,16.80
2022-11-28T15:22:55.570Z,14.50
2022-11-28T15:25:27.107Z,14.50
2022-11-28T15:27:55.346Z,16.00
2022-11-28T15:30:26.663Z,16.30
2022-11-28T15:33:00.110Z,16.50
2022-11-28T15:35:28.408Z,15.60
2022-11-28T15:37:58.315Z,15.30
2022-11-28T15:40:36.522Z,16.20
2022-11-28T15:43:09.588Z,14.40
2022-11-28T15:45:42.134Z,16.00
2022-11-28T15:48:37.666Z,16.30
2022-11-28T15:51:07.388Z,13.40
2022-11-28T15:53:33.764Z,18.60
2022-11-28T15:56:14.611Z,18.90
2022-11-28T15:58:44.346Z,17.00
2022-11-28T16:01:28.073Z,18.00
2022-11-28T16:04:05.268Z,15.30
2022-11-28T16:06:36.848Z,15.90
2022-11-28T16:09:17.087Z,15.40
2022-11-28T16:11:48.013Z,16.30
2022-11-28T16:14:43.578Z,15.60
2022-11-28T16:17:20.550Z,15.50
2022-11-28T16:19:52.472Z,14.70
2022-11-28T16:22:22.150Z,15.00
2022-11-28T16:24:52.255Z,15.00
2022-11-28T16:27:35.269Z,15.50
2022-11-28T16:30:23.903Z,14.60
2022-11-28T16:32:53.131Z,15.10
2022-11-28T16:35:40.457Z,14.20
2022-11-28T16:38:25.124Z,15.40
2022-11-28T16:40:59.623Z,16.00
2022-11-28T16:43:35.231Z,15.70
2022-11-28T16:46:06.850Z,17.10
2022-11-28T16:48:46.648Z,16.00
2022-11-28T16:51:13.213Z,16.50
2022-11-28T16:53:51.190Z,14.00
2022-11-28T16:56:29.601Z,13.80
2022-11-28T16:59:18.793Z,14.80
2022-11-28T17:01:52.807Z,15.70
2022-11-28T17:04:27.661Z,15.00
2022-11-28T17:06:58.536Z,13.50
2022-11-28T17:09:25.176Z,14.90
2022-11-28T17:11:58.948Z,14.80
2022-11-28T17:14:25.573Z,15.60
2022-11-28T17:16:52.108Z,16.00
2022-11-28T17:19:18.515Z,17.30
2022-11-28T17:21:52.480Z,17.10
2022-11-28T17:24:26.630Z,15.50
2022-11-28T17:26:54.855Z,13.30
2022-11-28T17:29:22.816Z,10.90
2022-11-28T17:31:50.179Z,12.60
2022-11-28T17:34:35.120Z,12.90
2022-11-28T17:37:02.934Z,12.90
2022-11-28T17:39:29.760Z,13.10
2022-11-28T17:41:57.605Z,14.30
2022-11-28T17:44:31.396Z,15.60
2022-11-28T17:47:00.444Z,13.80
2022-11-28T17:49:28.109Z,14.50
2022-11-28T17:51:56.565Z,14.50
2022-11-28T17:54:25.082Z,15.30
2022-11-28T17:56:52.956Z,16.70
2022-11-28T17:59:23.422Z,16.70
2022-11-28T18:01:50.977Z,16.00
2022-11-28T18:04:17.772Z,16.20
2022-11-28T18:06:47.167Z,14.90
2022-11-28T18:09:14.329Z,17.70
2022-11-28T18:11:42.525Z,16.00
2022-11-28T18:14:09.535Z,17.10
2022-11-28T18:16:36.302Z,17.00
2022-11-28T18:19:04.138Z,16.30
2022-11-28T18:21:31.442Z,15.40
2022-11-28T18:23:57.939Z,14.90
2022-11-28T18:26:26.166Z,16.70
2022-11-28T18:28:53.866Z,13.90
2022-11-28T18:31:24.379Z,16.10
2022-11-28T18:33:55.115Z,16.00
2022-11-28T18:36:27.344Z,15.60
2022-11-28T18:39:00.098Z,14.70
2022-11-28T18:41:27.490Z,13.10
2022-11-28T18:44:04.585Z,15.00
2022-11-28T18:46:32.595Z,12.70
2022-11-28T18:48:59.193Z,14.50
2022-11-28T18:51:35.255Z,13.60
2022-11-28T18:54:05.131Z,14.50
2022-11-28T18:56:32.040Z,15.50
2022-11-28T18:58:59.349Z,12.90
2022-11-28T19:01:32.605Z,12.40
2022-11-28T19:04:03.970Z,15.00
2022-11-28T19:06:31.762Z,15.00
2022-11-28T19:09:01.393Z,14.60
2022-11-28T19:11:29.405Z,13.40
2022-11-28T19:13:56.303Z,14.30
2022-11-28T19:16:29.707Z,12.30
2022-11-28T19:18:57.462Z,11.90
2022-11-28T19:21:28.051Z,12.10
2022-11-28T19:23:56.141Z,12.60
2022-11-28T19:26:25.892Z,10.10
2022-11-28T19:28:52.607Z,9.90
2022-11-28T19:31:28.926Z,12.90
2022-11-28T19:34:08.521Z,13.20
2022-11-28T19:36:41.050Z,12.10
2022-11-28T19:39:12.771Z,12.60
2022-11-28T19:41:39.164Z,14.80
2022-11-28T19:44:05.523Z,14.80
2022-11-28T19:46:35.352Z,14.20
2022-11-28T19:49:02.825Z,11.80
2022-11-28T19:51:29.268Z,13.20
2022-11-28T19:54:01.415Z,11.20
2022-11-28T19:56:29.741Z,13.50
2022-11-28T19:58:56.116Z,13.10
2022-11-28T20:01:24.366Z,10.90
2022-11-28T20:03:51.672Z,12.60
2022-11-28T20:06:26.380Z,12.60
2022-11-28T20:08:54.818Z,12.20
2022-11-28T20:11:26.046Z,12.10
2022-11-28T20:14:00.815Z,10.80
2022-11-28T20:16:30.469Z,9.00
2022-11-28T20:18:57.478Z,11.80
2022-11-28T20:21:23.880Z,12.20
2022-11-28T20:23:56.972Z,9.70
2022-11-28T20:26:26.830Z,10.90
2022-11-28T20:28:56.825Z,11.00
2022-11-28T20:31:30.961Z,10.40
2022-11-28T20:33:58.752Z,11.90
2022-11-28T20:36:27.783Z,11.00
2022-11-28T20:38:56.292Z,11.40
2022-11-28T20:41:25.320Z,10.30
2022-11-28T20:43:52.273Z,11.10
2022-11-28T20:46:30.054Z,10.20
2022-11-28T20:49:00.560Z,9.00
2022-11-28T20:51:31.503Z,11.20
2022-11-28T20:53:59.663Z,10.10
2022-11-28T20:56:29.677Z,9.70
2022-11-28T20:59:00.699Z,10.10
2022-11-28T21:01:35.416Z,10.50
2022-11-28T21:04:04.517Z,9.50
2022-11-28T21:06:31.449Z,12.10
2022-11-28T21:08:57.977Z,10.10
2022-11-28T21:11:50.500Z,9.40
2022-11-28T21:14:14.244Z,9.30
2022-11-28T21:16:41.672Z,10.10
2022-11-28T21:19:09.403Z,11.30
2022-11-28T21:21:39.840Z,10.60
2022-11-28T21:24:11.441Z,11.30
2022-11-28T21:26:44.218Z,8.40
2022-11-28T21:29:14.682Z,9.20
2022-11-28T21:31:44.537Z,9.40
2022-11-28T21:34:17.634Z,11.10
2022-11-28T21:36:45.430Z,12.00
2022-11-28T21:39:15.877Z,10.10
2022-11-28T21:41:42.820Z,10.60
2022-11-28T21:44:09.254Z,11.70
2022-11-28T21:46:35.781Z,10.90
2022-11-28T21:49:02.352Z,11.10
2022-11-28T21:51:29.165Z,10.00
2022-11-28T21:53:57.283Z,11.40
2022-11-28T21:56:24.494Z,10.80
2022-11-28T21:58:51.174Z,11.20
2022-11-28T22:01:17.991Z,10.80
2022-11-28T22:03:44.641Z,10.20
2022-11-28T22:06:18.021Z,12.20
2022-11-28T22:08:45.400Z,10.60
2022-11-28T22:11:13.239Z,12.30
2022-11-28T22:13:42.337Z,9.50
2022-11-28T22:16:22.544Z,11.20
2022-11-28T22:18:51.576Z,11.10
2022-11-28T22:24:05.812Z,10.20
2022-11-28T22:26:32.831Z,11.30
2022-11-28T22:28:59.395Z,11.70
2022-11-28T22:31:25.911Z,11.50
2022-11-28T22:33:52.612Z,11.60
2022-11-28T22:36:21.098Z,10.60
2022-11-28T22:38:54.985Z,10.20
2022-11-28T22:41:28.258Z,10.00
2022-11-28T22:43:56.771Z,11.50
2022-11-28T22:46:23.328Z,11.40
2022-11-28T22:48:51.076Z,10.40
2022-11-28T22:51:23.560Z,11.50
2022-11-28T22:53:58.807Z,11.50
2022-11-28T22:56:26.412Z,10.00
2022-11-28T22:58:52.931Z,8.70
2022-11-28T23:01:24.202Z,10.00
2022-11-28T23:03:51.673Z,10.90
2022-11-28T23:06:27.287Z,11.50
2022-11-28T23:08:55.786Z,10.80
2022-11-28T23:11:25.402Z,10.70
2022-11-28T23:13:53.220Z,10.10
2022-11-28T23:16:27.353Z,11.50
2022-11-28T23:18:58.266Z,10.90
2022-11-28T23:21:28.465Z,11.30
2022-11-28T23:23:54.980Z,10.70
2022-11-28T23:26:25.746Z,11.90
2022-11-28T23:28:52.772Z,9.80
2022-11-28T23:31:29.180Z,11.00
2022-11-28T23:33:57.066Z,10.50
2022-11-28T23:36:27.203Z,10.90
2022-11-28T23:38:57.523Z,11.10
2022-11-28T23:41:24.845Z,12.40
2022-11-28T23:43:51.346Z,11.50
2022-11-28T23:46:19.785Z,10.40
2022-11-28T23:48:47.219Z,11.30
2022-11-28T23:51:16.215Z,10.20
2022-11-28T23:53:44.104Z,10.40
2022-11-28T23:56:21.686Z,10.20
2022-11-28T23:58:48.933Z,10.50
